createdAt,value
2023-03-26T00:03:54.640Z,1011.3
2023-03-26T00:09:59.969Z,1011.2
2023-03-26T00:16:06.195Z,1011.3
2023-03-26T00:22:11.538Z,1011.2
2023-03-26T00:28:16.304Z,1011.2
2023-03-26T00:34:22.001Z,1011.2
2023-03-26T00:40:27.786Z,1011.1
2023-03-26T00:46:33.781Z,1011
2023-03-26T00:52:39.233Z,1011
2023-03-26T00:58:44.321Z,1010.9
2023-03-26T01:04:50.139Z,1011
2023-03-26T01:10:55.318Z,1011
2023-03-26T01:17:01.431Z,1011
2023-03-26T01:23:06.808Z,1011
2023-03-26T01:29:12.053Z,1011
2023-03-26T01:35:17.625Z,1010.9
2023-03-26T01:41:23.592Z,1010.8
2023-03-26T01:47:28.966Z,1010.8
2023-03-26T01:53:34.253Z,1010.7
2023-03-26T01:59:39.489Z,1010.7
2023-03-26T02:05:45.187Z,1010.5
2023-03-26T02:11:50.457Z,1010.5
2023-03-26T02:17:55.991Z,1010.4
2023-03-26T02:24:01.180Z,1010.4
2023-03-26T02:30:06.820Z,1010.4
2023-03-26T02:36:12.357Z,1010.4
2023-03-26T02:42:18.267Z,1010.3
2023-03-26T02:48:23.662Z,1010.2
2023-03-26T02:54:29.170Z,1010.1
2023-03-26T03:00:34.652Z,1010
2023-03-26T03:06:40.149Z,1009.9
2023-03-26T03:12:45.329Z,1009.7
2023-03-26T03:18:50.489Z,1009.7
2023-03-26T03:24:55.644Z,1009.6
2023-03-26T03:31:01.268Z,1009.5
2023-03-26T03:37:06.217Z,1009.4
2023-03-26T03:43:10.940Z,1009.5
2023-03-26T03:49:16.890Z,1009.4
2023-03-26T03:55:22.125Z,1009.4
2023-03-26T04:01:28.222Z,1009.4
2023-03-26T04:07:33.585Z,1009.3
2023-03-26T04:13:39.022Z,1009.1
2023-03-26T04:19:44.348Z,1009.1
2023-03-26T04:25:49.659Z,1009
2023-03-26T04:31:55.118Z,1009.1
2023-03-26T04:38:00.419Z,1009
2023-03-26T04:44:05.667Z,1008.9
2023-03-26T04:50:10.926Z,1008.8
2023-03-26T04:56:16.501Z,1008.8
2023-03-26T05:02:21.880Z,1008.7
2023-03-26T05:08:27.422Z,1008.6
2023-03-26T05:14:32.826Z,1008.5
2023-03-26T05:20:38.445Z,1008.4
2023-03-26T05:26:44.204Z,1008.4
2023-03-26T05:32:50.338Z,1008.4
2023-03-26T05:38:56.137Z,1008.4
2023-03-26T05:45:01.758Z,1008.3
2023-03-26T05:51:06.916Z,1008.3
2023-03-26T05:57:12.286Z,1008
2023-03-26T06:03:17.662Z,1008
2023-03-26T06:09:23.371Z,1007.8
2023-03-26T06:15:29.184Z,1007.9
2023-03-26T06:21:34.574Z,1007.9
2023-03-26T06:27:39.960Z,1007.8
2023-03-26T06:33:45.249Z,1007.9
2023-03-26T06:39:50.618Z,1007.7
2023-03-26T06:45:56.394Z,1007.7
2023-03-26T06:52:01.980Z,1007.7
2023-03-26T06:58:07.763Z,1007.7
2023-03-26T07:04:13.009Z,1007.6
2023-03-26T07:10:18.273Z,1007.6
2023-03-26T07:16:23.989Z,1007.5
2023-03-26T07:22:29.441Z,1007.4
2023-03-26T07:28:35.204Z,1007.1
2023-03-26T07:34:40.581Z,1006.8
2023-03-26T07:40:46.240Z,1006.6
2023-03-26T07:46:51.976Z,1006.5
2023-03-26T07:52:56.930Z,1006.4
2023-03-26T07:59:02.308Z,1006.4
2023-03-26T08:05:07.887Z,1006.2
2023-03-26T08:11:13.200Z,1006.1
2023-03-26T08:17:18.405Z,1005.9
2023-03-26T08:23:23.972Z,1005.9
2023-03-26T08:29:29.362Z,1005.9
2023-03-26T08:35:34.951Z,1005.9
2023-03-26T08:41:40.653Z,1005.9
2023-03-26T08:47:48.535Z,1006
2023-03-26T08:53:53.690Z,1006
2023-03-26T09:00:00.251Z,1005.8
2023-03-26T09:06:06.827Z,1005.9
2023-03-26T09:12:12.811Z,1005.7
2023-03-26T09:18:18.229Z,1005.7
2023-03-26T09:24:23.734Z,1005.5
2023-03-26T09:30:29.126Z,1005.4
2023-03-26T09:36:34.683Z,1005.4
2023-03-26T09:42:40.330Z,1005.5
2023-03-26T09:48:46.031Z,1005.4
2023-03-26T09:54:51.071Z,1005.3
2023-03-26T10:00:57.041Z,1005.4
2023-03-26T10:07:02.410Z,1005.2
2023-03-26T10:13:16.516Z,1005.1
2023-03-26T10:19:21.980Z,1005
2023-03-26T10:25:29.229Z,1005.1
2023-03-26T10:31:34.561Z,1005.2
2023-03-26T10:37:39.991Z,1005.4
2023-03-26T10:43:54.831Z,1005.5
2023-03-26T10:50:12.068Z,1005.3
2023-03-26T10:56:17.651Z,1005.2
2023-03-26T11:02:31.902Z,1005
2023-03-26T11:08:37.660Z,1004.9
2023-03-26T11:14:42.823Z,1004.9
2023-03-26T11:20:48.535Z,1004.9
2023-03-26T11:26:54.126Z,1005.1
2023-03-26T11:32:59.509Z,1005.1
2023-03-26T11:39:05.251Z,1005.1
2023-03-26T11:45:11.238Z,1004.9
2023-03-26T11:51:16.673Z,1004.9
2023-03-26T11:57:22.200Z,1004.9
2023-03-26T12:03:27.955Z,1004.9
2023-03-26T12:09:33.575Z,1004.6
2023-03-26T12:15:38.948Z,1004.6
2023-03-26T12:21:44.465Z,1004.6
2023-03-26T12:27:50.248Z,1004.6
2023-03-26T12:33:56.609Z,1004.4
2023-03-26T12:40:13.150Z,1004.3
2023-03-26T12:48:03.254Z,1004.3
2023-03-26T12:54:10.507Z,1004.2
2023-03-26T13:00:16.088Z,1004.1
2023-03-26T13:06:21.644Z,1004.1
2023-03-26T13:12:27.425Z,1004.1
2023-03-26T13:18:32.995Z,1004
2023-03-26T13:24:39.189Z,1004.1
2023-03-26T13:30:45.237Z,1004.1
2023-03-26T13:36:51.018Z,1004.2
2023-03-26T13:42:58.255Z,1004.1
2023-03-26T13:49:03.382Z,1004
2023-03-26T13:55:08.695Z,1003.9
2023-03-26T14:01:14.594Z,1003.8
2023-03-26T14:07:20.856Z,1003.7
2023-03-26T14:13:25.905Z,1003.7
2023-03-26T14:19:30.223Z,1003.6
2023-03-26T14:25:35.734Z,1003.5
2023-03-26T14:31:40.780Z,1003.5
2023-03-26T14:37:46.144Z,1003.4
2023-03-26T14:43:52.046Z,1003.3
2023-03-26T14:49:57.798Z,1003.2
2023-03-26T14:56:03.410Z,1003.2
2023-03-26T15:02:09.626Z,1003.2
2023-03-26T15:08:14.809Z,1003
2023-03-26T15:14:19.903Z,1003.1
2023-03-26T15:20:25.471Z,1003
2023-03-26T15:26:30.710Z,1002.9
2023-03-26T15:32:35.929Z,1002.9
2023-03-26T15:38:41.048Z,1002.7
2023-03-26T15:44:55.387Z,1003.1
2023-03-26T15:51:00.908Z,1003.2
2023-03-26T15:57:06.296Z,1003.4
2023-03-26T16:03:12.251Z,1003.5
2023-03-26T16:09:17.831Z,1003.3
2023-03-26T16:15:23.487Z,1003.1
2023-03-26T16:21:33.547Z,1003
2023-03-26T16:27:39.471Z,1002.8
2023-03-26T16:33:44.676Z,1002.7
2023-03-26T16:39:50.616Z,1002.6
2023-03-26T16:45:56.030Z,1002.5
2023-03-26T16:52:01.398Z,1002.5
2023-03-26T16:58:06.975Z,1002.6
2023-03-26T17:04:12.822Z,1002.6
2023-03-26T17:10:18.473Z,1002.6
2023-03-26T17:16:24.680Z,1002.5
2023-03-26T17:22:30.666Z,1002.4
2023-03-26T17:28:36.278Z,1002.5
2023-03-26T17:34:41.868Z,1002.7
2023-03-26T17:40:46.804Z,1003.1
2023-03-26T17:46:51.974Z,1003.2
2023-03-26T17:52:57.884Z,1003.5
2023-03-26T17:59:14.108Z,1003.6
2023-03-26T18:05:19.877Z,1003.7
2023-03-26T18:11:25.056Z,1003.7
2023-03-26T18:17:31.030Z,1003.6
2023-03-26T18:23:36.252Z,1003.6
2023-03-26T18:29:41.857Z,1003.6
2023-03-26T18:35:47.822Z,1003.8
2023-03-26T18:41:53.519Z,1003.6
2023-03-26T18:47:58.901Z,1003.5
2023-03-26T18:54:04.733Z,1003.5
2023-03-26T19:00:10.672Z,1003.4
2023-03-26T19:06:16.031Z,1003.3
2023-03-26T19:12:22.003Z,1003.4
2023-03-26T19:18:28.205Z,1003.3
2023-03-26T19:24:33.576Z,1003.3
2023-03-26T19:30:39.348Z,1003.4
2023-03-26T19:36:44.550Z,1003.4
2023-03-26T19:42:50.341Z,1003.5
2023-03-26T19:48:55.912Z,1003.4
2023-03-26T19:55:02.457Z,1003.3
2023-03-26T20:01:08.070Z,1003.4
2023-03-26T20:07:13.443Z,1003.5
2023-03-26T20:13:18.981Z,1003.5
2023-03-26T20:19:24.971Z,1003.5
2023-03-26T20:25:33.182Z,1003.4
2023-03-26T20:31:38.970Z,1003.3
2023-03-26T20:37:44.548Z,1003.2
2023-03-26T20:43:49.881Z,1003.3
2023-03-26T20:49:56.108Z,1003.2
2023-03-26T20:56:02.093Z,1003.3
2023-03-26T21:02:07.936Z,1003.4
2023-03-26T21:08:13.630Z,1003.3
2023-03-26T21:14:19.236Z,1003.2
2023-03-26T21:20:24.958Z,1003.3
2023-03-26T21:32:51.386Z,1003.4
2023-03-26T21:38:56.828Z,1003.4
2023-03-26T21:45:02.218Z,1003.4
2023-03-26T21:51:07.457Z,1003.5
2023-03-26T21:57:12.610Z,1003.4
2023-03-26T22:03:18.290Z,1003.4
2023-03-26T22:15:46.478Z,1003.2
2023-03-26T22:21:52.642Z,1003.2
2023-03-26T22:27:58.492Z,1003.2
2023-03-26T22:34:04.232Z,1003.3
2023-03-26T22:40:09.985Z,1003.3
2023-03-26T22:46:15.646Z,1003.3
2023-03-26T22:52:20.839Z,1003.2
2023-03-26T22:58:26.287Z,1003.3
2023-03-26T23:04:34.017Z,1003.2
2023-03-26T23:10:39.748Z,1003.2
2023-03-26T23:16:45.529Z,1003.2
2023-03-26T23:22:51.093Z,1003.1
2023-03-26T23:28:57.003Z,1003.1
2023-03-26T23:35:02.992Z,1003
2023-03-26T23:41:08.424Z,1003.1
2023-03-26T23:47:13.599Z,1002.9
2023-03-26T23:53:18.965Z,1002.9
2023-03-26T23:59:24.327Z,1003
